createdAt,value
2022-12-24T00:00:12.320Z,1.95
2022-12-24T00:02:39.490Z,2.22
2022-12-24T00:05:06.781Z,2.20
2022-12-24T00:07:33.592Z,2.05
2022-12-24T00:10:00.391Z,2.60
2022-12-24T00:12:27.247Z,1.95
2022-12-24T00:14:54.014Z,2.17
2022-12-24T00:17:20.878Z,2.22
2022-12-24T00:19:47.806Z,2.15
2022-12-24T00:22:14.826Z,2.50
2022-12-24T00:24:41.598Z,2.13
2022-12-24T00:27:08.487Z,3.60
2022-12-24T00:29:35.310Z,2.20
2022-12-24T00:32:02.204Z,2.25
2022-12-24T00:34:29.118Z,1.95
2022-12-24T00:36:55.877Z,2.50
2022-12-24T00:39:22.651Z,2.13
2022-12-24T00:41:49.457Z,1.75
2022-12-24T00:44:16.246Z,2.30
2022-12-24T00:46:43.242Z,1.95
2022-12-24T00:49:12.503Z,2.42
2022-12-24T00:51:39.668Z,2.03
2022-12-24T00:54:06.988Z,1.95
2022-12-24T00:56:34.560Z,2.92
2022-12-24T00:59:01.725Z,2.40
2022-12-24T01:01:28.756Z,2.72
2022-12-24T01:04:16.666Z,2.40
2022-12-24T01:06:44.329Z,2.17
2022-12-24T01:09:11.340Z,2.10
2022-12-24T01:11:38.234Z,2.22
2022-12-24T01:14:05.207Z,2.28
2022-12-24T01:16:32.129Z,1.77
2022-12-24T01:18:59.358Z,2.90
2022-12-24T01:21:26.225Z,2.13
2022-12-24T01:23:53.162Z,1.85
2022-12-24T01:26:19.919Z,2.10
2022-12-24T01:28:46.715Z,2.20
2022-12-24T01:31:15.981Z,2.17
2022-12-24T01:33:43.612Z,2.30
2022-12-24T01:36:11.290Z,2.22
2022-12-24T01:38:38.269Z,2.20
2022-12-24T01:41:24.084Z,2.50
2022-12-24T01:43:50.874Z,2.47
2022-12-24T01:46:26.564Z,2.42
2022-12-24T01:48:59.815Z,1.92
2022-12-24T01:52:08.192Z,2.10
2022-12-24T01:54:52.081Z,2.38
2022-12-24T01:57:27.760Z,2.08
2022-12-24T01:59:58.474Z,2.60
2022-12-24T02:02:27.736Z,1.75
2022-12-24T02:05:31.911Z,2.17
2022-12-24T02:08:01.696Z,2.33
2022-12-24T02:10:28.596Z,2.50
2022-12-24T02:12:56.132Z,2.03
2022-12-24T02:15:23.264Z,2.40
2022-12-24T02:18:11.957Z,2.58
2022-12-24T02:21:25.962Z,1.95
2022-12-24T02:24:14.498Z,1.90
2022-12-24T02:26:50.141Z,2.17
2022-12-24T02:29:22.707Z,2.20
2022-12-24T02:32:03.665Z,1.73
2022-12-24T02:34:37.374Z,2.08
2022-12-24T02:37:09.236Z,2.60
2022-12-24T02:40:13.939Z,2.20
2022-12-24T02:42:48.400Z,2.33
2022-12-24T02:45:19.456Z,2.33
2022-12-24T02:47:47.258Z,2.03
2022-12-24T02:50:16.093Z,2.33
2022-12-24T02:52:47.355Z,2.03
2022-12-24T02:55:20.201Z,2.28
2022-12-24T02:58:03.185Z,1.75
2022-12-24T03:00:50.382Z,2.30
2022-12-24T03:03:26.017Z,1.98
2022-12-24T03:06:21.927Z,2.03
2022-12-24T03:08:54.442Z,2.25
2022-12-24T03:11:21.503Z,2.67
2022-12-24T03:13:49.254Z,2.92
2022-12-24T03:16:22.438Z,3.00
2022-12-24T03:18:51.097Z,1.90
2022-12-24T03:21:21.664Z,1.85
2022-12-24T03:23:49.026Z,1.50
2022-12-24T03:26:18.265Z,2.85
2022-12-24T03:28:46.404Z,2.03
2022-12-24T03:31:13.724Z,2.05
2022-12-24T03:33:41.011Z,1.95
2022-12-24T03:36:08.550Z,2.40
2022-12-24T03:38:36.008Z,1.90
2022-12-24T03:41:03.271Z,2.13
2022-12-24T03:43:30.130Z,2.17
2022-12-24T03:45:57.094Z,2.28
2022-12-24T03:48:30.791Z,2.13
2022-12-24T03:50:59.247Z,2.20
2022-12-24T03:53:26.050Z,2.55
2022-12-24T03:55:52.817Z,1.75
2022-12-24T03:58:19.622Z,2.05
2022-12-24T04:00:46.422Z,2.33
2022-12-24T04:03:13.256Z,2.75
2022-12-24T04:05:40.162Z,2.22
2022-12-24T04:08:06.958Z,1.98
2022-12-24T04:10:33.748Z,2.35
2022-12-24T04:13:00.545Z,1.75
2022-12-24T04:15:27.346Z,2.08
2022-12-24T04:17:54.333Z,1.95
2022-12-24T04:20:21.123Z,2.38
2022-12-24T04:22:47.896Z,2.47
2022-12-24T04:25:14.752Z,2.30
2022-12-24T04:27:41.560Z,1.85
2022-12-24T04:30:09.031Z,1.77
2022-12-24T04:32:36.023Z,2.05
2022-12-24T04:35:02.817Z,2.10
2022-12-24T04:37:29.652Z,2.22
2022-12-24T04:39:56.411Z,2.10
2022-12-24T04:42:23.189Z,2.50
2022-12-24T04:44:49.934Z,2.20
2022-12-24T04:47:16.877Z,2.35
2022-12-24T04:49:43.713Z,2.70
2022-12-24T04:52:11.046Z,1.70
2022-12-24T04:54:37.815Z,2.15
2022-12-24T04:57:04.618Z,2.17
2022-12-24T04:59:31.468Z,2.40
2022-12-24T05:01:58.599Z,2.70
2022-12-24T05:04:25.541Z,2.47
2022-12-24T05:06:52.323Z,2.80
2022-12-24T05:09:19.097Z,2.28
2022-12-24T05:11:45.878Z,3.28
2022-12-24T05:14:12.669Z,2.38
2022-12-24T05:16:39.542Z,2.97
2022-12-24T05:19:06.425Z,2.08
2022-12-24T05:21:33.256Z,2.65
2022-12-24T05:24:18.988Z,2.55
2022-12-24T05:26:48.502Z,2.55
2022-12-24T05:29:15.507Z,1.80
2022-12-24T05:31:43.723Z,2.53
2022-12-24T05:34:11.510Z,2.65
2022-12-24T05:36:38.849Z,2.63
2022-12-24T05:39:11.534Z,2.65
2022-12-24T05:41:42.078Z,2.08
2022-12-24T05:44:09.003Z,2.78
2022-12-24T05:46:35.831Z,2.17
2022-12-24T05:49:02.758Z,2.70
2022-12-24T05:51:29.508Z,2.47
2022-12-24T05:53:56.302Z,2.63
2022-12-24T05:56:25.441Z,2.63
2022-12-24T05:58:53.678Z,3.00
2022-12-24T06:01:22.423Z,3.13
2022-12-24T06:03:49.977Z,2.05
2022-12-24T06:06:20.956Z,2.80
2022-12-24T06:08:49.311Z,2.97
2022-12-24T06:11:18.995Z,2.58
2022-12-24T06:13:45.762Z,2.78
2022-12-24T06:16:15.150Z,3.13
2022-12-24T06:18:42.643Z,2.35
2022-12-24T06:21:10.438Z,3.05
2022-12-24T06:23:40.066Z,3.58
2022-12-24T06:26:08.713Z,3.00
2022-12-24T06:28:37.437Z,2.70
2022-12-24T06:31:06.621Z,3.20
2022-12-24T06:33:34.457Z,2.40
2022-12-24T06:36:01.708Z,3.15
2022-12-24T06:38:31.423Z,2.65
2022-12-24T06:40:58.617Z,3.13
2022-12-24T06:43:25.797Z,2.88
2022-12-24T06:45:53.473Z,3.17
2022-12-24T06:48:20.303Z,2.72
2022-12-24T06:50:47.183Z,2.95
2022-12-24T06:53:14.026Z,2.53
2022-12-24T06:55:47.381Z,2.42
2022-12-24T06:58:14.761Z,2.38
2022-12-24T07:00:41.567Z,2.70
2022-12-24T07:03:08.386Z,2.67
2022-12-24T07:05:35.163Z,3.05
2022-12-24T07:08:01.978Z,2.38
2022-12-24T07:10:28.789Z,2.92
2022-12-24T07:12:55.590Z,3.03
2022-12-24T07:15:22.420Z,3.55
2022-12-24T07:17:49.322Z,3.33
2022-12-24T07:20:16.370Z,2.55
2022-12-24T07:22:43.484Z,2.85
2022-12-24T07:25:11.386Z,3.08
2022-12-24T07:27:38.859Z,3.47
2022-12-24T07:30:06.592Z,4.18
2022-12-24T07:32:33.702Z,3.08
2022-12-24T07:35:00.538Z,3.13
2022-12-24T07:37:30.637Z,3.13
2022-12-24T07:39:57.830Z,3.20
2022-12-24T07:42:24.751Z,3.17
2022-12-24T07:44:51.629Z,2.95
2022-12-24T07:47:19.576Z,3.63
2022-12-24T07:49:46.333Z,3.35
2022-12-24T07:52:13.083Z,3.10
2022-12-24T07:54:40.052Z,2.92
2022-12-24T07:57:06.820Z,3.15
2022-12-24T07:59:33.693Z,2.92
2022-12-24T08:02:00.677Z,3.33
2022-12-24T08:04:27.660Z,3.35
2022-12-24T08:06:54.473Z,3.00
2022-12-24T08:09:21.256Z,2.67
2022-12-24T08:11:51.876Z,2.60
2022-12-24T08:14:19.508Z,3.70
2022-12-24T08:16:46.416Z,3.30
2022-12-24T08:19:16.733Z,2.63
2022-12-24T08:21:43.737Z,2.85
2022-12-24T08:24:10.565Z,3.58
2022-12-24T08:26:37.385Z,3.53
2022-12-24T08:29:05.593Z,2.75
2022-12-24T08:31:36.756Z,3.13
2022-12-24T08:34:04.668Z,3.28
2022-12-24T08:36:31.442Z,3.03
2022-12-24T08:38:58.392Z,3.47
2022-12-24T08:41:25.304Z,3.45
2022-12-24T08:43:52.091Z,3.17
2022-12-24T08:46:18.945Z,3.10
2022-12-24T08:48:45.828Z,4.03
2022-12-24T08:51:12.741Z,2.55
2022-12-24T08:53:39.853Z,2.80
2022-12-24T08:56:09.686Z,3.60
2022-12-24T08:58:36.701Z,2.95
2022-12-24T09:01:12.149Z,3.65
2022-12-24T09:03:39.200Z,4.28
2022-12-24T09:06:07.421Z,3.17
2022-12-24T09:08:34.623Z,2.83
2022-12-24T09:11:13.884Z,3.85
2022-12-24T09:13:41.830Z,3.05
2022-12-24T09:16:09.326Z,3.33
2022-12-24T09:18:36.110Z,4.07
2022-12-24T09:21:05.930Z,2.50
2022-12-24T09:23:35.795Z,3.20
2022-12-24T09:26:07.039Z,2.95
2022-12-24T09:28:34.112Z,3.30
2022-12-24T09:31:03.164Z,3.03
2022-12-24T09:33:31.886Z,3.25
2022-12-24T09:35:58.943Z,3.55
2022-12-24T09:38:25.789Z,3.38
2022-12-24T09:40:55.189Z,2.58
2022-12-24T09:43:24.746Z,2.65
2022-12-24T09:45:58.375Z,3.28
2022-12-24T09:48:29.628Z,2.47
2022-12-24T09:51:05.224Z,3.65
2022-12-24T09:53:43.581Z,3.53
2022-12-24T09:56:18.732Z,2.85
2022-12-24T09:58:49.285Z,3.00
2022-12-24T10:01:17.694Z,3.42
2022-12-24T10:03:45.444Z,3.65
2022-12-24T10:06:50.446Z,3.38
2022-12-24T10:09:17.175Z,2.58
2022-12-24T10:12:03.778Z,3.05
2022-12-24T10:14:55.564Z,3.40
2022-12-24T10:17:28.207Z,4.45
2022-12-24T10:19:57.748Z,2.80
2022-12-24T10:22:46.439Z,3.70
2022-12-24T10:25:31.853Z,3.65
2022-12-24T10:28:02.451Z,3.15
2022-12-24T10:30:29.972Z,3.92
2022-12-24T10:32:56.771Z,2.85
2022-12-24T10:35:29.120Z,3.92
2022-12-24T10:37:58.067Z,3.22
2022-12-24T10:40:44.419Z,3.00
2022-12-24T10:43:21.098Z,3.20
2022-12-24T10:45:55.160Z,3.40
2022-12-24T10:48:28.662Z,3.60
2022-12-24T10:51:18.922Z,3.53
2022-12-24T10:54:11.702Z,3.28
2022-12-24T10:56:44.698Z,2.45
2022-12-24T10:59:30.648Z,3.42
2022-12-24T11:01:59.836Z,3.22
2022-12-24T11:04:32.525Z,3.40
2022-12-24T11:07:06.979Z,2.90
2022-12-24T11:09:36.771Z,3.08
2022-12-24T11:12:09.375Z,3.88
2022-12-24T11:14:40.073Z,3.10
2022-12-24T11:17:07.210Z,3.05
2022-12-24T11:19:38.749Z,3.00
2022-12-24T11:22:08.935Z,3.60
2022-12-24T11:24:38.211Z,3.35
2022-12-24T11:27:24.819Z,3.67
2022-12-24T11:29:51.734Z,3.40
2022-12-24T11:32:21.838Z,3.08
2022-12-24T11:34:49.495Z,3.45
2022-12-24T11:37:23.325Z,3.80
2022-12-24T11:39:55.610Z,3.20
2022-12-24T11:42:35.427Z,3.67
2022-12-24T11:45:05.668Z,3.38
2022-12-24T11:47:37.875Z,3.33
2022-12-24T11:50:30.272Z,3.38
2022-12-24T11:53:12.815Z,3.05
2022-12-24T11:55:52.915Z,3.72
2022-12-24T11:58:46.170Z,3.17
2022-12-24T12:01:30.663Z,2.95
2022-12-24T12:04:10.619Z,3.25
2022-12-24T12:06:40.546Z,2.88
2022-12-24T12:09:24.153Z,3.40
2022-12-24T12:12:05.673Z,3.95
2022-12-24T12:14:44.191Z,3.83
2022-12-24T12:17:29.978Z,5.22
2022-12-24T12:20:19.949Z,4.00
2022-12-24T12:23:00.161Z,3.88
2022-12-24T12:25:37.490Z,3.70
2022-12-24T12:28:11.853Z,3.10
2022-12-24T12:30:41.075Z,3.05
2022-12-24T12:33:17.906Z,3.30
2022-12-24T12:35:45.794Z,3.35
2022-12-24T12:38:32.491Z,2.53
2022-12-24T12:41:14.403Z,2.75
2022-12-24T12:43:55.938Z,3.25
2022-12-24T12:46:40.684Z,2.80
2022-12-24T12:49:07.462Z,2.90
2022-12-24T12:51:37.357Z,3.03
2022-12-24T12:54:35.852Z,2.72
2022-12-24T12:57:08.889Z,3.60
2022-12-24T12:59:49.629Z,2.88
2022-12-24T13:02:43.570Z,3.10
2022-12-24T13:05:45.264Z,2.67
2022-12-24T13:08:28.802Z,3.55
2022-12-24T13:10:58.400Z,3.25
2022-12-24T13:13:51.637Z,2.97
2022-12-24T13:16:38.782Z,3.58
2022-12-24T13:19:38.408Z,3.83
2022-12-24T13:22:13.313Z,3.20
2022-12-24T13:24:40.260Z,3.17
2022-12-24T13:27:21.090Z,3.20
2022-12-24T13:29:53.731Z,2.83
2022-12-24T13:32:20.483Z,2.75
2022-12-24T13:35:00.976Z,3.33
2022-12-24T13:37:27.716Z,3.72
2022-12-24T13:40:06.739Z,4.03
2022-12-24T13:43:01.457Z,3.20
2022-12-24T13:45:31.543Z,3.28
2022-12-24T13:48:13.516Z,3.28
2022-12-24T13:50:45.303Z,3.70
2022-12-24T13:53:41.324Z,3.72
2022-12-24T13:56:14.031Z,3.45
2022-12-24T13:58:47.612Z,3.55
2022-12-24T14:01:20.768Z,3.28
2022-12-24T14:03:48.984Z,3.67
2022-12-24T14:06:21.544Z,3.47
2022-12-24T14:08:51.643Z,3.97
2022-12-24T14:11:20.276Z,5.22
2022-12-24T14:13:47.018Z,5.90
2022-12-24T14:16:24.817Z,4.60
2022-12-24T14:18:59.336Z,5.68
2022-12-24T14:21:31.023Z,4.60
2022-12-24T14:24:19.461Z,4.40
2022-12-24T14:26:51.290Z,3.53
2022-12-24T14:29:32.629Z,3.90
2022-12-24T14:32:04.265Z,3.13
2022-12-24T14:34:31.838Z,3.00
2022-12-24T14:37:02.925Z,3.28
2022-12-24T14:39:31.647Z,3.33
2022-12-24T14:42:04.290Z,3.88
2022-12-24T14:44:49.874Z,3.65
2022-12-24T14:47:41.882Z,3.63
2022-12-24T14:50:11.555Z,3.35
2022-12-24T14:53:07.196Z,2.65
2022-12-24T14:55:45.516Z,3.45
2022-12-24T14:58:30.062Z,2.90
2022-12-24T15:01:03.079Z,2.63
2022-12-24T15:03:32.671Z,2.80
2022-12-24T15:06:05.411Z,3.05
2022-12-24T15:08:38.124Z,2.70
2022-12-24T15:11:08.618Z,3.17
2022-12-24T15:13:37.485Z,2.90
2022-12-24T15:16:08.990Z,2.85
2022-12-24T15:18:46.488Z,2.78
2022-12-24T15:21:37.666Z,2.33
2022-12-24T15:24:05.041Z,2.50
2022-12-24T15:26:37.664Z,2.00
2022-12-24T15:29:20.900Z,3.05
2022-12-24T15:31:56.107Z,2.65
2022-12-24T15:34:39.373Z,2.53
2022-12-24T15:37:22.697Z,2.50
2022-12-24T15:40:02.427Z,2.35
2022-12-24T15:42:29.640Z,3.17
2022-12-24T15:45:20.268Z,2.20
2022-12-24T15:48:23.981Z,2.70
2022-12-24T15:50:54.757Z,2.42
2022-12-24T15:53:24.096Z,2.67
2022-12-24T15:56:09.405Z,3.15
2022-12-24T15:58:42.027Z,2.72
2022-12-24T16:01:09.073Z,2.55
2022-12-24T16:03:38.395Z,3.10
2022-12-24T16:06:11.678Z,3.13
2022-12-24T16:08:40.152Z,3.05
2022-12-24T16:11:09.514Z,2.80
2022-12-24T16:13:40.092Z,2.40
2022-12-24T16:16:09.297Z,2.50
2022-12-24T16:18:38.079Z,2.78
2022-12-24T16:21:06.604Z,2.50
2022-12-24T16:23:39.510Z,2.80
2022-12-24T16:26:06.479Z,2.72
2022-12-24T16:28:33.636Z,2.67
2022-12-24T16:31:00.769Z,2.60
2022-12-24T16:33:28.922Z,2.55
2022-12-24T16:35:56.611Z,2.47
2022-12-24T16:38:23.975Z,2.33
2022-12-24T16:40:51.162Z,2.28
2022-12-24T16:43:36.790Z,2.55
2022-12-24T16:46:06.273Z,2.90
2022-12-24T16:48:37.475Z,2.53
2022-12-24T16:51:04.447Z,3.15
2022-12-24T16:53:31.319Z,3.08
2022-12-24T16:55:58.421Z,3.40
2022-12-24T16:58:25.346Z,3.13
2022-12-24T17:00:52.344Z,3.90
2022-12-24T17:03:19.243Z,4.07
2022-12-24T17:05:46.159Z,3.10
2022-12-24T17:08:13.729Z,3.80
2022-12-24T17:10:41.210Z,3.75
2022-12-24T17:13:08.067Z,3.25
2022-12-24T17:15:35.226Z,3.75
2022-12-24T17:18:02.093Z,3.20
2022-12-24T17:20:29.005Z,3.40
2022-12-24T17:22:55.928Z,3.92
2022-12-24T17:25:23.659Z,3.17
2022-12-24T17:27:50.527Z,3.42
2022-12-24T17:30:17.618Z,3.70
2022-12-24T17:32:44.429Z,2.95
2022-12-24T17:35:11.297Z,3.33
2022-12-24T17:37:38.230Z,2.80
2022-12-24T17:40:05.776Z,3.63
2022-12-24T17:42:32.646Z,3.25
2022-12-24T17:44:59.563Z,3.00
2022-12-24T17:47:26.785Z,3.72
2022-12-24T17:49:53.634Z,3.70
2022-12-24T17:52:20.572Z,2.90
2022-12-24T17:54:47.411Z,3.40
2022-12-24T17:57:14.248Z,3.58
2022-12-24T17:59:41.092Z,2.78
2022-12-24T18:02:12.063Z,3.65
2022-12-24T18:04:39.146Z,3.30
2022-12-24T18:07:05.979Z,3.00
2022-12-24T18:09:32.810Z,2.88
2022-12-24T18:12:01.027Z,3.45
2022-12-24T18:14:28.434Z,2.92
2022-12-24T18:16:55.306Z,3.58
2022-12-24T18:19:22.168Z,3.47
2022-12-24T18:21:49.000Z,3.08
2022-12-24T18:24:15.884Z,3.58
2022-12-24T18:26:45.543Z,3.13
2022-12-24T18:29:13.111Z,3.40
2022-12-24T18:31:40.487Z,3.38
2022-12-24T18:34:09.698Z,4.38
2022-12-24T18:36:36.613Z,3.15
2022-12-24T18:39:03.958Z,3.25
2022-12-24T18:41:31.264Z,3.25
2022-12-24T18:43:59.465Z,3.03
2022-12-24T18:46:29.547Z,3.10
2022-12-24T18:48:57.946Z,3.88
2022-12-24T18:51:29.283Z,3.40
2022-12-24T18:53:56.167Z,3.70
2022-12-24T18:56:24.873Z,3.75
2022-12-24T18:59:02.633Z,3.03
2022-12-24T19:01:32.376Z,4.40
2022-12-24T19:04:00.761Z,2.90
2022-12-24T19:06:27.657Z,3.58
2022-12-24T19:08:58.446Z,3.53
2022-12-24T19:11:27.465Z,3.17
2022-12-24T19:13:54.305Z,3.20
2022-12-24T19:16:21.434Z,4.00
2022-12-24T19:18:49.032Z,3.35
2022-12-24T19:21:17.484Z,3.13
2022-12-24T19:23:45.715Z,3.70
2022-12-24T19:26:14.059Z,2.95
2022-12-24T19:28:41.192Z,3.53
2022-12-24T19:31:19.776Z,2.80
2022-12-24T19:33:57.167Z,3.00
2022-12-24T19:36:27.086Z,3.45
2022-12-24T19:38:54.168Z,3.30
2022-12-24T19:41:27.087Z,3.88
2022-12-24T19:43:56.855Z,3.17
2022-12-24T19:46:29.364Z,3.58
2022-12-24T19:48:59.426Z,3.30
2022-12-24T19:51:27.394Z,2.50
2022-12-24T19:53:55.654Z,3.03
2022-12-24T19:56:23.781Z,2.92
2022-12-24T19:58:50.746Z,3.78
2022-12-24T20:01:23.136Z,3.03
2022-12-24T20:03:51.932Z,2.90
2022-12-24T20:06:21.847Z,2.97
2022-12-24T20:08:48.801Z,3.10
2022-12-24T20:11:20.677Z,3.03
2022-12-24T20:13:47.731Z,3.50
2022-12-24T20:16:21.042Z,3.88
2022-12-24T20:18:59.806Z,3.78
2022-12-24T20:21:27.607Z,2.97
2022-12-24T20:23:54.710Z,3.30
2022-12-24T20:26:24.651Z,3.17
2022-12-24T20:28:51.659Z,2.95
2022-12-24T20:31:22.364Z,3.22
2022-12-24T20:33:49.887Z,3.38
2022-12-24T20:36:18.814Z,2.42
2022-12-24T20:38:47.138Z,3.03
2022-12-24T20:41:16.453Z,2.95
2022-12-24T20:43:48.211Z,2.83
2022-12-24T20:46:17.976Z,3.33
2022-12-24T20:48:44.923Z,3.72
2022-12-24T20:51:21.246Z,3.42
2022-12-24T20:53:51.284Z,3.25
2022-12-24T20:56:18.700Z,3.45
2022-12-24T20:58:46.085Z,4.88
2022-12-24T21:01:25.085Z,3.90
2022-12-24T21:03:53.844Z,3.13
2022-12-24T21:06:20.963Z,3.03
2022-12-24T21:08:52.131Z,3.53
2022-12-24T21:11:38.464Z,2.97
2022-12-24T21:14:05.775Z,2.78
2022-12-24T21:16:33.868Z,3.75
2022-12-24T21:19:01.145Z,3.63
2022-12-24T21:21:28.145Z,3.63
2022-12-24T21:23:55.087Z,4.05
2022-12-24T21:26:21.997Z,3.45
2022-12-24T21:28:50.327Z,2.80
2022-12-24T21:31:17.877Z,2.72
2022-12-24T21:33:45.271Z,3.30
2022-12-24T21:36:14.260Z,3.20
2022-12-24T21:38:41.364Z,3.75
2022-12-24T21:41:11.281Z,3.72
2022-12-24T21:43:38.668Z,4.00
2022-12-24T21:46:18.610Z,3.95
2022-12-24T21:49:04.512Z,3.25
2022-12-24T21:51:32.547Z,3.60
2022-12-24T21:54:18.501Z,3.85
2022-12-24T21:57:04.363Z,3.72
2022-12-24T21:59:31.224Z,3.20
2022-12-24T22:01:58.577Z,3.50
2022-12-24T22:04:25.757Z,3.40
2022-12-24T22:07:11.144Z,3.08
2022-12-24T22:09:57.853Z,2.92
2022-12-24T22:12:25.359Z,3.28
2022-12-24T22:14:52.183Z,2.88
2022-12-24T22:17:24.711Z,2.47
2022-12-24T22:19:53.093Z,2.75
2022-12-24T22:22:19.961Z,2.78
2022-12-24T22:24:46.767Z,3.42
2022-12-24T22:27:13.588Z,3.42
2022-12-24T22:29:40.651Z,3.03
2022-12-24T22:32:07.459Z,3.13
2022-12-24T22:34:34.835Z,2.90
2022-12-24T22:37:01.948Z,3.00
2022-12-24T22:39:28.733Z,2.25
2022-12-24T22:41:57.914Z,2.60
2022-12-24T22:44:25.022Z,3.35
2022-12-24T22:46:51.843Z,2.90
2022-12-24T22:49:18.720Z,2.53
2022-12-24T22:51:45.559Z,3.00
2022-12-24T22:54:12.456Z,3.20
2022-12-24T22:56:41.624Z,2.63
2022-12-24T22:59:12.312Z,2.60
2022-12-24T23:01:43.011Z,3.28
2022-12-24T23:04:10.955Z,3.90
2022-12-24T23:06:38.276Z,3.53
2022-12-24T23:09:07.685Z,3.63
2022-12-24T23:11:34.807Z,3.08
2022-12-24T23:14:20.503Z,3.13
2022-12-24T23:16:47.386Z,2.85
2022-12-24T23:19:14.263Z,3.10
2022-12-24T23:21:41.601Z,3.42
2022-12-24T23:24:10.215Z,3.40
2022-12-24T23:26:37.129Z,2.95
2022-12-24T23:29:04.270Z,3.47
2022-12-24T23:31:31.267Z,3.05
2022-12-24T23:33:58.108Z,2.63
2022-12-24T23:36:24.939Z,3.00
2022-12-24T23:38:53.861Z,3.13
2022-12-24T23:41:21.249Z,2.65
2022-12-24T23:43:48.153Z,2.70
2022-12-24T23:46:17.098Z,3.30
2022-12-24T23:48:45.850Z,3.15
2022-12-24T23:51:19.729Z,2.53
2022-12-24T23:53:46.558Z,2.67
2022-12-24T23:56:13.787Z,2.97
2022-12-24T23:58:42.216Z,2.70
